Flight Track Log - Related Links

Times and Time Zones

All times are in EDT time to prevent confusion due to time zone crossing. See the FLG3861 flight status page for this flight to view local times or setup timezone preferences in your user account.

Time Position Orientation Groundspeed Altitude Reporting Facility
EDT Latitude Longitude Course Direction KTS MPH feet Rate Location/Type
Mon 09:38:38 PM 42.2050 -83.3528 187° South 153 176 1,200  Level Cleveland Center
Mon 09:39:08 PM 42.1861 -83.3558 187° South 157 181 2,300 1,933 Climbing Cleveland Center
Mon 09:40:08 PM 42.1378 -83.3458 171° South 179 206 4,100 1,869 Climbing Cleveland Center
Mon 09:40:09 PM 42.1347 -83.3431 146° Southeast 221 254 4,200 2,323 Climbing Cleveland Center
Mon 09:41:10 PM 42.1411 -83.2667 84° East 265 305 6,500 2,636 Climbing Cleveland Center
Mon 09:41:15 PM 42.1506 -83.2439 61° Northeast 290 334 7,100 2,852 Climbing Cleveland Center
Mon 09:42:11 PM 42.1794 -83.1561 66° East 298 343 9,400 2,085 Climbing Cleveland Center
Mon 09:43:13 PM 42.2094 -83.0428 70° East 320 368 11,200 1,902 Climbing Cleveland Center
Mon 09:44:14 PM 42.2450 -82.9144 69° East 363 418 13,300 2,115 Climbing Cleveland Center
Mon 09:45:15 PM 42.2800 -82.7836 70° East 368 423 15,500 1,854 Climbing Cleveland Center
Mon 09:46:17 PM 42.2794 -82.6425 90° East 382 440 17,100 1,317 Climbing Cleveland Center
Mon 09:47:18 PM 42.2769 -82.4664 91° East 391 450 18,200 780 Climbing Cleveland Center
Mon 09:48:20 PM 42.2753 -82.3064 91° East 421 484 18,700 732 Climbing Cleveland Center
Mon 09:49:21 PM 42.2731 -82.1408 91° East 436 502 19,700 934 Climbing Cleveland Center
Mon 09:50:22 PM 42.2700 -81.9756 91° East 439 505 20,600 829 Climbing Cleveland Center
Mon 09:51:24 PM 42.2675 -81.8047 91° East 446 513 21,400 780 Climbing Cleveland Center
Mon 09:52:25 PM 42.2647 -81.6308 91° East 454 522 22,200 787 Climbing Cleveland Center
Mon 09:53:26 PM 42.2606 -81.4586 92° East 454 522 23,000 732 Climbing Cleveland Center
Mon 09:54:28 PM 42.2569 -81.2856 92° East 455 524 23,700 634 Climbing Cleveland Center
Mon 09:55:29 PM 42.2525 -81.1111 92° East 458 527 24,300 590 Climbing Cleveland Center
Mon 09:56:30 PM 42.2489 -80.9344 92° East 462 532 24,900 585 Climbing Cleveland Center
Mon 09:57:32 PM 42.2444 -80.7586 92° East 463 533 25,500 537 Climbing Cleveland Center
Mon 09:58:33 PM 42.2394 -80.5825 92° East 464 534 26,000 537 Climbing Cleveland Center
Mon 09:59:35 PM 42.2333 -80.3739 92° East 469 540 26,600 488 Climbing Cleveland Center
Mon 10:00:36 PM 42.2283 -80.1956 92° East 470 541 27,000 195 Climbing Cleveland Center
Mon 10:01:38 PM 42.2211 -80.0125 93° East 479 551 27,000  Level Cleveland Center
Mon 10:02:39 PM 42.2147 -79.8272 93° East 482 555 27,000  Level Cleveland Center
Mon 10:03:40 PM 42.2081 -79.6447 93° East 485 558 27,000  Level Cleveland Center
Mon 10:04:42 PM 42.2011 -79.4642 93° East 487 560 27,000  Level Cleveland Center
Mon 10:05:43 PM 42.1936 -79.2819 93° East 490 564 27,000  Level Cleveland Center
Mon 10:06:45 PM 42.1878 -79.0983 92° East 489 563 27,000  Level Cleveland Center
Mon 10:07:46 PM 42.1908 -78.9181 89° East 484 557 27,000  Level Cleveland Center
Mon 10:08:48 PM 42.1958 -78.7272 88° East 485 558 27,000  Level Cleveland Center
Mon 10:09:49 PM 42.1983 -78.5447 89° East 486 559 27,000  Level Cleveland Center
Mon 10:10:50 PM 42.2011 -78.3639 89° East 487 560 27,000 -683 Level Cleveland Center
Mon 10:11:52 PM 42.2036 -78.1472 89° East 487 560 25,600 -1,610 Descending Cleveland Center
Mon 10:12:53 PM 42.2056 -77.9728 89° East 474 545 23,700 -1,854 Descending Cleveland Center
Mon 10:13:55 PM 42.2067 -77.8025 89° East 464 534 21,800 -1,805 Descending Cleveland Center
Mon 10:14:56 PM 42.2086 -77.6328 89° East 461 531 20,000 -1,756 Descending Cleveland Center
Mon 10:15:58 PM 42.2089 -77.4689 90° East 444 511 18,200 -1,463 Descending Cleveland Center
Mon 10:16:59 PM 42.2103 -77.3086 89° East 438 504 17,000 -585 Descending Cleveland Center
Mon 10:18:01 PM 42.2103 -77.1264 90° East 414 476 17,000 -61 Level Cleveland Center
Mon 10:18:38 PM 42.2103 -77.0311 90° East 415 478 16,900 -1,299 Descending New York Center
Mon 10:19:38 PM 42.2114 -76.8883 89° East 404 465 14,900 -1,900 Descending New York Center
Mon 10:20:38 PM 42.2108 -76.7761 90° East 383 441 13,100 -2,050 Descending New York Center
Mon 10:21:38 PM 42.1994 -76.6297 96° East 371 427 10,800 -1,700 Descending New York Center
Mon 10:22:38 PM 42.1861 -76.5192 99° East 332 382 9,700 -1,267 Descending New York Center
Mon 10:23:08 PM 42.1803 -76.4681 99° East 287 330 8,900 -1,714 Descending Cleveland Center
Mon 10:24:09 PM 42.1639 -76.3542 101° East 280 322 7,100 -1,659 Descending Cleveland Center
Mon 10:25:11 PM 42.1517 -76.2561 100° East 272 313 5,500 -1,463 Descending Cleveland Center
Mon 10:26:12 PM 42.1367 -76.1606 102° East 252 290 4,100 -738 Descending Cleveland Center
Mon 10:27:13 PM 42.1264 -76.0819 100° East 243 280 4,000 -164 Descending Cleveland Center
Mon 10:28:38 PM 42.1211 -75.9881 94° East 201 231 3,700 -455 Descending New York Center
Mon 10:29:38 PM 42.1397 -75.9447 60° Northeast 166 191 2,900 -600 Descending New York Center
Mon 10:30:38 PM 42.1686 -75.9469 357° North 91 105 2,500 -450 Descending New York Center
Mon 10:31:38 PM 42.1936 -75.9461 North 86 99 2,000 -500 Descending New York Center

Login

Don't have an account? Register now (free) for customized features, flight alerts, and more!